To NAV CANADA Home Page Login to a new session Search on AWWS site Feedback and Comments Disclaimer Vers la page française équivalente Tips FAQ What's new on the site To the Forecasts and Observations / NOTAM section To "File a Flight Plan" website Publications and other links Update of the User's profile FIC Telephone Numbers My Weather Data Folder Route Weather Data Regional Weather Data Local Weather Data To the Forecasts and Observations / NOTAM section
Request Generated 03/03/2015 at 18:45:43 UTC . Weather information available at that time is displayed.

METAR/TAF

MONTREAL/ST-HUBERT/QC    (show WxCam)

METAR CYHU 031800Z AUTO 13010KT 9SM OVC210 M07/M17 A3022 RMK SLP237=
METAR CYHU 031700Z AUTO 17009G15KT 140V200 9SM CLR M07/M17 A3028 RMK
SLP256=
METAR CYHU 031600Z AUTO 18008KT 9SM CLR M08/M17 A3031 RMK SLP265=

TAF CYHU 031738Z 0318/0418 17012KT P6SM BKN220
FM032000 17012KT P6SM BKN120 OVC200
FM032200 17015KT P6SM -SN FEW020 OVC080 TEMPO 0322/0323 21/2SM
-SN BKN020 OVC060
FM032300 17015G25KT 3/4SM -SN BLSN VV008 TEMPO 0323/0408 2SM -SN
OVC015
BECMG 0404/0406 19012KT
FM040800 25010KT 3SM -SN OVC010
FM041000 25012KT P6SM -SHSN BKN020
FM041200 26015KT P6SM BKN025
BECMG 0413/0415 25020G35KT
RMK FCST BASED ON AUTO OBS. NXT FCST BY 040000Z=
Your time UTC time
Weather data provided by Environment Canada and NAV CANADA